createdAt,value
2022-08-28T00:01:37.866Z,11.30
2022-08-28T00:04:05.870Z,11.77
2022-08-28T00:06:33.528Z,11.88
2022-08-28T00:09:02.680Z,16.88
2022-08-28T00:11:30.443Z,11.63
2022-08-28T00:13:58.629Z,11.15
2022-08-28T00:16:26.660Z,11.88
2022-08-28T00:18:54.353Z,10.93
2022-08-28T00:21:22.255Z,11.27
2022-08-28T00:23:49.936Z,11.75
2022-08-28T00:26:32.871Z,11.07
2022-08-28T00:29:00.955Z,11.63
2022-08-28T00:31:28.666Z,11.70
2022-08-28T00:33:56.386Z,12.20
2022-08-28T00:36:24.016Z,11.32
2022-08-28T00:38:51.708Z,11.02
2022-08-28T00:41:24.881Z,11.27
2022-08-28T00:44:09.635Z,11.02
2022-08-28T00:46:37.867Z,11.00
2022-08-28T00:49:06.633Z,11.48
2022-08-28T00:51:53.159Z,10.60
2022-08-28T00:54:21.570Z,11.38
2022-08-28T00:56:54.439Z,9.90
2022-08-28T00:59:25.144Z,11.65
2022-08-28T01:01:55.970Z,11.38
2022-08-28T01:04:25.914Z,11.10
2022-08-28T01:06:56.080Z,11.57
2022-08-28T01:09:26.208Z,11.27
2022-08-28T01:11:57.463Z,11.02
2022-08-28T01:14:26.651Z,10.57
2022-08-28T01:16:56.210Z,11.55
2022-08-28T01:19:29.988Z,11.13
2022-08-28T01:22:03.442Z,11.32
2022-08-28T01:24:37.225Z,11.93
2022-08-28T01:27:09.900Z,11.25
2022-08-28T01:29:40.232Z,10.90
2022-08-28T01:32:08.642Z,11.48
2022-08-28T01:34:36.799Z,10.75
2022-08-28T01:37:05.236Z,11.43
2022-08-28T01:39:34.443Z,11.73
2022-08-28T01:42:03.483Z,11.30
2022-08-28T01:44:31.263Z,11.48
2022-08-28T01:46:59.685Z,12.10
2022-08-28T01:49:29.454Z,12.25
2022-08-28T01:51:58.934Z,11.38
2022-08-28T01:54:26.878Z,11.60
2022-08-28T01:56:56.522Z,11.90
2022-08-28T01:59:24.376Z,11.60
2022-08-28T02:01:52.177Z,11.77
2022-08-28T02:04:19.973Z,12.48
2022-08-28T02:06:53.551Z,11.57
2022-08-28T02:09:21.231Z,10.63
2022-08-28T02:11:48.881Z,11.27
2022-08-28T02:14:17.933Z,11.15
2022-08-28T02:16:45.588Z,10.77
2022-08-28T02:19:13.297Z,11.13
2022-08-28T02:21:41.606Z,11.10
2022-08-28T02:24:09.309Z,10.95
2022-08-28T02:26:37.179Z,11.57
2022-08-28T02:29:05.744Z,11.20
2022-08-28T02:31:34.797Z,11.13
2022-08-28T02:34:02.510Z,11.25
2022-08-28T02:36:30.290Z,12.65
2022-08-28T02:38:58.611Z,12.27
2022-08-28T02:41:26.310Z,10.93
2022-08-28T02:43:54.546Z,11.90
2022-08-28T02:46:22.335Z,11.43
2022-08-28T02:48:51.366Z,11.63
2022-08-28T02:51:20.076Z,11.52
2022-08-28T02:53:47.806Z,11.10
2022-08-28T02:56:15.857Z,11.20
2022-08-28T02:58:43.691Z,10.63
2022-08-28T03:01:13.536Z,11.20
2022-08-28T03:03:41.770Z,11.68
2022-08-28T03:06:12.175Z,11.75
2022-08-28T03:08:40.397Z,11.45
2022-08-28T03:11:08.106Z,11.63
2022-08-28T03:13:35.984Z,11.40
2022-08-28T03:16:05.031Z,11.90
2022-08-28T03:18:33.271Z,12.00
2022-08-28T03:21:01.255Z,11.35
2022-08-28T03:23:31.861Z,12.30
2022-08-28T03:26:01.693Z,12.27
2022-08-28T03:28:32.150Z,13.70
2022-08-28T03:31:00.019Z,11.70
2022-08-28T03:33:28.406Z,12.05
2022-08-28T03:35:56.313Z,11.80
2022-08-28T03:38:25.281Z,12.07
2022-08-28T03:40:55.404Z,11.45
2022-08-28T03:43:25.135Z,11.90
2022-08-28T03:45:55.306Z,11.15
2022-08-28T03:48:24.383Z,11.98
2022-08-28T03:50:53.370Z,11.60
2022-08-28T03:53:21.599Z,12.00
2022-08-28T03:55:49.753Z,12.13
2022-08-28T03:58:19.417Z,11.95
2022-08-28T04:00:47.664Z,12.63
2022-08-28T04:03:15.539Z,11.77
2022-08-28T04:05:44.986Z,13.52
2022-08-28T04:08:15.923Z,14.00
2022-08-28T04:10:44.148Z,13.38
2022-08-28T04:13:12.312Z,12.15
2022-08-28T04:15:41.737Z,13.20
2022-08-28T04:18:09.713Z,13.30
2022-08-28T04:20:38.194Z,12.57
2022-08-28T04:23:07.866Z,13.60
2022-08-28T04:25:35.525Z,12.45
2022-08-28T04:28:03.439Z,12.48
2022-08-28T04:30:31.321Z,13.07
2022-08-28T04:33:00.413Z,13.23
2022-08-28T04:35:29.056Z,13.55
2022-08-28T04:37:59.022Z,14.32
2022-08-28T04:40:26.918Z,13.23
2022-08-28T04:42:54.614Z,13.63
2022-08-28T04:45:22.531Z,13.50
2022-08-28T04:47:50.259Z,12.48
2022-08-28T04:50:19.647Z,13.77
2022-08-28T04:52:47.631Z,12.32
2022-08-28T04:55:15.470Z,13.07
2022-08-28T04:57:45.934Z,13.55
2022-08-28T05:00:14.282Z,13.68
2022-08-28T05:02:42.010Z,13.05
2022-08-28T05:05:10.635Z,13.35
2022-08-28T05:07:39.686Z,13.93
2022-08-28T05:10:12.635Z,13.27
2022-08-28T05:12:40.301Z,14.32
2022-08-28T05:15:09.248Z,14.15
2022-08-28T05:17:36.857Z,14.45
2022-08-28T05:20:05.828Z,13.40
2022-08-28T05:22:33.867Z,14.48
2022-08-28T05:25:02.860Z,13.30
2022-08-28T05:27:30.510Z,15.55
2022-08-28T05:30:01.714Z,14.30
2022-08-28T05:32:29.890Z,15.48
2022-08-28T05:34:57.669Z,15.00
2022-08-28T05:37:25.322Z,15.85
2022-08-28T05:39:52.988Z,15.48
2022-08-28T05:42:21.959Z,14.27
2022-08-28T05:44:50.261Z,15.13
2022-08-28T05:49:49.842Z,14.32
2022-08-28T05:52:19.914Z,14.07
2022-08-28T05:54:47.963Z,13.30
2022-08-28T05:57:15.597Z,15.15
2022-08-28T05:59:44.619Z,13.10
2022-08-28T06:02:12.387Z,14.00
2022-08-28T06:04:40.546Z,14.73
2022-08-28T06:07:09.290Z,14.10
2022-08-28T06:09:38.298Z,13.88
2022-08-28T06:12:06.314Z,13.32
2022-08-28T06:14:34.847Z,14.07
2022-08-28T06:17:05.255Z,13.10
2022-08-28T06:19:39.310Z,13.40
2022-08-28T06:22:09.703Z,13.90
2022-08-28T06:24:37.605Z,13.23
2022-08-28T06:27:05.975Z,13.45
2022-08-28T06:29:33.647Z,12.73
2022-08-28T06:32:04.321Z,12.85
2022-08-28T06:34:33.435Z,13.45
2022-08-28T06:37:01.077Z,11.27
2022-08-28T06:39:28.746Z,12.35
2022-08-28T06:41:56.460Z,12.40
2022-08-28T06:44:24.235Z,13.48
2022-08-28T06:46:53.948Z,14.38
2022-08-28T06:49:22.010Z,12.95
2022-08-28T06:51:51.060Z,13.52
2022-08-28T06:54:22.917Z,13.98
2022-08-28T06:56:51.402Z,12.93
2022-08-28T06:59:19.481Z,12.73
2022-08-28T07:01:47.300Z,12.73
2022-08-28T07:04:15.426Z,13.02
2022-08-28T07:06:46.749Z,13.10
2022-08-28T07:09:16.214Z,13.73
2022-08-28T07:11:46.602Z,12.88
2022-08-28T07:14:14.478Z,14.07
2022-08-28T07:16:42.123Z,13.38
2022-08-28T07:19:11.997Z,13.85
2022-08-28T07:21:41.695Z,12.82
2022-08-28T07:24:10.530Z,13.65
2022-08-28T07:26:41.433Z,13.40
2022-08-28T07:29:10.436Z,13.27
2022-08-28T07:31:41.503Z,13.10
2022-08-28T07:34:10.489Z,13.18
2022-08-28T07:36:38.363Z,12.75
2022-08-28T07:39:07.135Z,14.07
2022-08-28T07:41:37.342Z,13.82
2022-08-28T07:44:29.317Z,12.68
2022-08-28T07:46:58.273Z,13.60
2022-08-28T07:49:27.293Z,13.45
2022-08-28T07:51:54.917Z,12.40
2022-08-28T07:54:22.993Z,13.18
2022-08-28T07:56:50.916Z,13.40
2022-08-28T07:59:22.050Z,14.25
2022-08-28T08:01:51.242Z,13.13
2022-08-28T08:04:21.057Z,12.98
2022-08-28T08:06:48.917Z,13.35
2022-08-28T08:09:19.120Z,13.35
2022-08-28T08:11:47.355Z,12.45
2022-08-28T08:14:17.797Z,12.65
2022-08-28T08:16:47.864Z,13.63
2022-08-28T08:19:16.537Z,12.93
2022-08-28T08:21:45.574Z,12.82
2022-08-28T08:24:19.629Z,12.80
2022-08-28T08:26:50.816Z,13.80
2022-08-28T08:29:27.982Z,11.45
2022-08-28T08:31:58.822Z,12.27
2022-08-28T08:34:26.748Z,13.38
2022-08-28T08:36:54.395Z,11.68
2022-08-28T08:39:22.089Z,12.38
2022-08-28T08:41:52.060Z,12.55
2022-08-28T08:44:33.311Z,13.38
2022-08-28T08:47:14.182Z,12.18
2022-08-28T08:49:48.384Z,12.00
2022-08-28T08:52:32.862Z,13.13
2022-08-28T08:55:11.424Z,13.45
2022-08-28T08:57:43.953Z,15.10
2022-08-28T09:00:16.250Z,16.25
2022-08-28T09:02:49.692Z,18.00
2022-08-28T09:05:20.286Z,20.10
2022-08-28T09:07:53.355Z,17.92
2022-08-28T09:10:21.217Z,19.60
2022-08-28T09:12:54.591Z,16.02
2022-08-28T09:15:28.730Z,18.23
2022-08-28T09:18:04.955Z,17.15
2022-08-28T09:20:33.565Z,18.17
2022-08-28T09:23:02.147Z,19.50
2022-08-28T09:25:52.877Z,21.27
2022-08-28T09:28:23.610Z,19.15
2022-08-28T09:31:02.526Z,20.80
2022-08-28T09:33:42.121Z,17.77
2022-08-28T09:36:29.805Z,16.20
2022-08-28T09:39:11.524Z,17.20
2022-08-28T09:41:59.370Z,17.20
2022-08-28T09:44:27.182Z,16.23
2022-08-28T09:46:54.838Z,17.38
2022-08-28T09:49:27.522Z,16.92
2022-08-28T09:51:56.136Z,17.25
2022-08-28T09:54:28.739Z,17.98
2022-08-28T09:56:56.956Z,18.85
2022-08-28T09:59:26.513Z,18.48
2022-08-28T10:02:18.882Z,19.75
2022-08-28T10:04:55.865Z,19.92
2022-08-28T10:07:31.146Z,16.02
2022-08-28T10:10:09.995Z,16.13
2022-08-28T10:12:44.477Z,16.45
2022-08-28T10:15:18.275Z,16.17
2022-08-28T10:18:08.019Z,16.70
2022-08-28T10:20:47.807Z,17.20
2022-08-28T10:23:21.611Z,16.48
2022-08-28T10:25:52.381Z,16.08
2022-08-28T10:28:33.853Z,16.42
2022-08-28T10:31:05.905Z,13.90
2022-08-28T10:33:42.319Z,13.80
2022-08-28T10:36:33.199Z,14.15
2022-08-28T10:39:12.614Z,15.02
2022-08-28T10:41:43.986Z,14.05
2022-08-28T10:44:15.076Z,14.30
2022-08-28T10:46:46.042Z,14.35
2022-08-28T10:49:30.129Z,14.20
2022-08-28T10:52:04.597Z,14.15
2022-08-28T10:54:38.295Z,15.77
2022-08-28T10:57:25.247Z,15.18
2022-08-28T10:59:54.295Z,16.45
2022-08-28T11:02:23.929Z,17.90
2022-08-28T11:04:55.350Z,16.65
2022-08-28T11:07:32.257Z,17.17
2022-08-28T11:10:19.525Z,19.38
2022-08-28T11:12:47.687Z,20.92
2022-08-28T11:15:51.513Z,23.13
2022-08-28T11:18:57.777Z,21.60
2022-08-28T11:21:27.116Z,26.95
2022-08-28T11:24:01.442Z,28.63
2022-08-28T11:26:34.499Z,26.42
2022-08-28T11:29:04.214Z,28.77
2022-08-28T11:31:42.174Z,25.23
2022-08-28T11:34:48.710Z,29.38
2022-08-28T11:37:39.786Z,26.13
2022-08-28T11:40:43.012Z,26.45
2022-08-28T11:43:34.789Z,26.60
2022-08-28T11:46:12.028Z,30.45
2022-08-28T11:48:50.772Z,26.52
2022-08-28T11:51:51.749Z,26.23
2022-08-28T11:54:34.644Z,26.33
2022-08-28T11:57:08.367Z,25.75
2022-08-28T11:59:52.569Z,25.08
2022-08-28T12:02:49.241Z,25.38
2022-08-28T12:05:54.284Z,26.52
2022-08-28T12:09:11.570Z,26.73
2022-08-28T12:11:58.239Z,26.63
2022-08-28T12:15:07.734Z,27.58
2022-08-28T12:17:48.490Z,28.17
2022-08-28T12:20:31.364Z,29.17
2022-08-28T12:23:00.666Z,27.27
2022-08-28T12:25:33.688Z,28.42
2022-08-28T12:28:07.078Z,27.30
2022-08-28T12:30:46.479Z,29.17
2022-08-28T12:33:19.127Z,28.15
2022-08-28T12:35:46.931Z,34.67
2022-08-28T12:38:19.605Z,27.52
2022-08-28T12:40:52.785Z,29.75
2022-08-28T12:43:28.541Z,27.08
2022-08-28T12:45:58.463Z,26.00
2022-08-28T12:48:31.477Z,25.55
2022-08-28T12:51:04.901Z,25.70
2022-08-28T12:53:43.786Z,24.60
2022-08-28T12:56:12.394Z,25.77
2022-08-28T12:58:41.442Z,24.65
2022-08-28T13:01:11.555Z,24.98
2022-08-28T13:03:46.894Z,23.80
2022-08-28T13:06:14.879Z,26.05
2022-08-28T13:08:42.584Z,24.05
2022-08-28T13:11:10.950Z,24.48
2022-08-28T13:13:47.294Z,24.53
2022-08-28T13:16:37.640Z,25.73
2022-08-28T13:19:14.563Z,24.75
2022-08-28T13:21:55.470Z,23.23
2022-08-28T13:24:42.323Z,25.75
2022-08-28T13:27:19.186Z,23.92
2022-08-28T13:29:57.331Z,23.70
2022-08-28T13:32:30.957Z,27.37
2022-08-28T13:35:09.866Z,25.00
2022-08-28T13:37:44.090Z,25.70
2022-08-28T13:40:30.280Z,25.33
2022-08-28T13:43:02.839Z,23.52
2022-08-28T13:45:42.436Z,24.35
2022-08-28T13:48:14.064Z,25.20
2022-08-28T13:50:44.829Z,24.65
2022-08-28T13:53:15.560Z,24.00
2022-08-28T13:55:43.319Z,25.83
2022-08-28T13:58:10.963Z,25.00
2022-08-28T14:00:42.943Z,25.42
2022-08-28T14:03:29.974Z,25.65
2022-08-28T14:05:57.797Z,23.83
2022-08-28T14:08:25.583Z,23.77
2022-08-28T14:10:53.269Z,25.83
2022-08-28T14:13:23.121Z,24.08
2022-08-28T14:15:50.859Z,21.40
2022-08-28T14:18:20.284Z,22.25
2022-08-28T14:20:47.991Z,22.75
2022-08-28T14:23:17.205Z,23.30
2022-08-28T14:25:45.983Z,22.58
2022-08-28T14:28:14.837Z,22.38
2022-08-28T14:30:43.648Z,23.42
2022-08-28T14:33:11.580Z,21.55
2022-08-28T14:35:41.620Z,21.33
2022-08-28T14:38:09.944Z,23.45
2022-08-28T14:40:38.239Z,23.35
2022-08-28T14:43:06.085Z,22.63
2022-08-28T14:45:33.745Z,23.88
2022-08-28T14:48:01.392Z,23.52
2022-08-28T14:50:29.063Z,23.20
2022-08-28T14:52:58.022Z,21.50
2022-08-28T14:55:26.353Z,21.42
2022-08-28T14:57:54.082Z,21.50
2022-08-28T15:00:22.001Z,23.13
2022-08-28T15:02:49.596Z,20.42
2022-08-28T15:05:27.471Z,22.58
2022-08-28T15:07:55.094Z,22.85
2022-08-28T15:10:24.525Z,22.95
2022-08-28T15:12:52.222Z,23.42
2022-08-28T15:15:20.263Z,24.90
2022-08-28T15:17:48.011Z,24.23
2022-08-28T15:20:15.852Z,22.13
2022-08-28T15:22:43.558Z,22.75
2022-08-28T15:25:11.286Z,23.02
2022-08-28T15:27:40.479Z,22.83
2022-08-28T15:30:09.262Z,22.75
2022-08-28T15:32:37.448Z,22.75
2022-08-28T15:35:05.847Z,22.88
2022-08-28T15:37:33.608Z,22.38
2022-08-28T15:40:18.687Z,22.70
2022-08-28T15:42:48.333Z,22.83
2022-08-28T15:45:16.868Z,21.23
2022-08-28T15:47:44.906Z,22.63
2022-08-28T15:50:12.557Z,22.10
2022-08-28T15:52:40.269Z,22.48
2022-08-28T15:55:10.439Z,21.00
2022-08-28T15:57:38.282Z,21.08
2022-08-28T16:00:10.465Z,22.45
2022-08-28T16:02:39.580Z,21.90
2022-08-28T16:05:07.974Z,22.13
2022-08-28T16:07:36.045Z,20.73
2022-08-28T16:10:07.066Z,22.17
2022-08-28T16:12:35.606Z,21.20
2022-08-28T16:15:03.341Z,21.73
2022-08-28T16:17:32.429Z,21.55
2022-08-28T16:20:00.155Z,21.33
2022-08-28T16:22:27.814Z,22.83
2022-08-28T16:24:55.500Z,21.48
2022-08-28T16:27:23.764Z,21.77
2022-08-28T16:29:52.833Z,23.17
2022-08-28T16:32:21.055Z,21.77
2022-08-28T16:34:50.297Z,23.65
2022-08-28T16:37:19.548Z,24.27
2022-08-28T16:39:49.554Z,22.70
2022-08-28T16:42:17.455Z,23.20
2022-08-28T16:44:45.085Z,22.73
2022-08-28T16:47:13.142Z,24.00
2022-08-28T16:49:40.865Z,23.23
2022-08-28T16:52:09.841Z,20.65
2022-08-28T16:54:37.668Z,22.38
2022-08-28T16:57:16.219Z,22.35
2022-08-28T16:59:44.087Z,21.20
2022-08-28T17:02:13.426Z,22.20
2022-08-28T17:04:41.282Z,21.13
2022-08-28T17:07:10.345Z,23.60
2022-08-28T17:09:37.995Z,23.90
2022-08-28T17:12:05.984Z,20.65
2022-08-28T17:14:34.207Z,21.40
2022-08-28T17:17:02.174Z,22.27
2022-08-28T17:19:29.798Z,20.88
2022-08-28T17:22:14.908Z,21.00
2022-08-28T17:24:44.020Z,20.45
2022-08-28T17:27:14.426Z,21.20
2022-08-28T17:29:49.122Z,22.05
2022-08-28T17:32:16.825Z,22.27
2022-08-28T17:34:44.544Z,22.73
2022-08-28T17:37:12.271Z,21.70
2022-08-28T17:39:40.030Z,20.83
2022-08-28T17:42:09.154Z,20.95
2022-08-28T17:44:36.771Z,19.00
2022-08-28T17:47:04.505Z,20.48
2022-08-28T17:49:32.286Z,20.77
2022-08-28T17:51:59.938Z,19.92
2022-08-28T17:54:28.011Z,20.63
2022-08-28T17:56:56.158Z,21.40
2022-08-28T17:59:27.737Z,21.50
2022-08-28T18:01:55.543Z,21.63
2022-08-28T18:04:24.601Z,21.20
2022-08-28T18:06:54.047Z,21.23
2022-08-28T18:09:22.504Z,22.00
2022-08-28T18:11:50.190Z,20.60
2022-08-28T18:14:18.006Z,19.92
2022-08-28T18:16:47.426Z,21.45
2022-08-28T18:19:16.259Z,21.90
2022-08-28T18:21:43.896Z,21.50
2022-08-28T18:24:12.947Z,22.88
2022-08-28T18:26:41.229Z,20.98
2022-08-28T18:29:08.874Z,21.95
2022-08-28T18:31:36.690Z,22.35
2022-08-28T18:34:05.838Z,21.20
2022-08-28T18:36:33.476Z,21.83
2022-08-28T18:39:01.158Z,22.48
2022-08-28T18:41:41.620Z,20.92
2022-08-28T18:44:12.301Z,22.67
2022-08-28T18:46:40.102Z,21.52
2022-08-28T18:49:09.258Z,22.60
2022-08-28T18:51:36.960Z,21.95
2022-08-28T18:54:04.911Z,21.88
2022-08-28T18:56:33.981Z,20.60
2022-08-28T18:59:04.275Z,21.27
2022-08-28T19:01:32.043Z,20.67
2022-08-28T19:04:00.037Z,22.13
2022-08-28T19:06:29.100Z,23.35
2022-08-28T19:08:56.938Z,22.77
2022-08-28T19:11:24.720Z,21.77
2022-08-28T19:13:52.378Z,21.55
2022-08-28T19:16:21.231Z,22.02
2022-08-28T19:18:48.943Z,22.13
2022-08-28T19:21:20.868Z,22.70
2022-08-28T19:23:55.555Z,21.13
2022-08-28T19:26:24.551Z,21.88
2022-08-28T19:28:52.528Z,21.48
2022-08-28T19:31:20.443Z,21.20
2022-08-28T19:33:48.718Z,22.52
2022-08-28T19:36:17.308Z,22.73
2022-08-28T19:38:45.541Z,22.83
2022-08-28T19:41:14.871Z,22.55
2022-08-28T19:43:44.516Z,24.15
2022-08-28T19:46:19.718Z,22.48
2022-08-28T19:48:48.421Z,21.63
2022-08-28T19:51:17.757Z,20.98
2022-08-28T19:53:56.739Z,21.58
2022-08-28T19:56:28.142Z,21.50
2022-08-28T19:58:57.381Z,21.27
2022-08-28T20:01:25.063Z,26.02
2022-08-28T20:03:53.194Z,22.13
2022-08-28T20:06:20.749Z,23.38
2022-08-28T20:08:48.378Z,21.02
2022-08-28T20:11:17.588Z,20.92
2022-08-28T20:13:46.647Z,23.05
2022-08-28T20:16:14.355Z,21.95
2022-08-28T20:18:42.197Z,23.27
2022-08-28T20:21:12.410Z,22.40
2022-08-28T20:23:40.667Z,23.33
2022-08-28T20:26:10.086Z,21.50
2022-08-28T20:28:38.019Z,22.10
2022-08-28T20:31:09.981Z,21.10
2022-08-28T20:33:38.125Z,23.25
2022-08-28T20:36:08.366Z,23.15
2022-08-28T20:38:48.886Z,21.38
2022-08-28T20:41:19.074Z,22.42
2022-08-28T20:43:47.342Z,24.83
2022-08-28T20:46:17.149Z,22.10
2022-08-28T20:48:45.363Z,22.90
2022-08-28T20:51:13.785Z,23.65
2022-08-28T20:53:41.467Z,23.88
2022-08-28T20:56:10.666Z,20.58
2022-08-28T20:58:38.563Z,22.02
2022-08-28T21:01:06.588Z,24.65
2022-08-28T21:03:35.729Z,21.35
2022-08-28T21:06:03.399Z,21.58
2022-08-28T21:08:31.029Z,22.25
2022-08-28T21:10:58.955Z,26.95
2022-08-28T21:13:26.784Z,22.55
2022-08-28T21:15:54.526Z,22.65
2022-08-28T21:18:22.211Z,21.88
2022-08-28T21:20:52.808Z,21.98
2022-08-28T21:23:20.813Z,23.67
2022-08-28T21:25:49.097Z,23.45
2022-08-28T21:28:16.915Z,20.92
2022-08-28T21:30:44.784Z,21.85
2022-08-28T21:33:12.411Z,20.38
2022-08-28T21:35:41.251Z,21.30
2022-08-28T21:38:10.300Z,20.15
2022-08-28T21:40:38.114Z,21.80
2022-08-28T21:43:05.826Z,23.83
2022-08-28T21:45:33.493Z,22.02
2022-08-28T21:48:01.178Z,22.05
2022-08-28T21:50:29.608Z,20.02
2022-08-28T21:52:57.811Z,20.38
2022-08-28T21:55:26.767Z,20.55
2022-08-28T21:57:54.391Z,20.60
2022-08-28T22:00:24.455Z,21.25
2022-08-28T22:02:52.352Z,21.70
2022-08-28T22:05:20.416Z,20.73
2022-08-28T22:07:48.178Z,21.50
2022-08-28T22:10:15.990Z,22.00
2022-08-28T22:12:44.965Z,20.65
2022-08-28T22:15:12.961Z,22.48
2022-08-28T22:17:40.629Z,25.13
2022-08-28T22:20:09.366Z,21.23
2022-08-28T22:22:54.360Z,23.40
2022-08-28T22:25:22.222Z,20.77
2022-08-28T22:27:51.218Z,20.40
2022-08-28T22:30:18.893Z,20.60
2022-08-28T22:32:46.522Z,19.98
2022-08-28T22:35:14.298Z,20.63
2022-08-28T22:37:42.461Z,20.80
2022-08-28T22:40:13.552Z,20.17
2022-08-28T22:42:41.602Z,19.13
2022-08-28T22:45:11.133Z,21.63
2022-08-28T22:47:39.592Z,19.00
2022-08-28T22:50:08.501Z,20.10
2022-08-28T22:52:37.168Z,23.55
2022-08-28T22:55:06.697Z,70.40
2022-08-28T22:57:34.399Z,22.20
2022-08-28T23:00:03.912Z,29.55
2022-08-28T23:02:33.139Z,42.53
2022-08-28T23:05:00.803Z,81.60
2022-08-28T23:07:28.441Z,150.60
2022-08-28T23:09:56.085Z,56.17
2022-08-28T23:12:24.065Z,44.90
2022-08-28T23:14:51.990Z,29.35
2022-08-28T23:17:19.846Z,30.67
2022-08-28T23:19:49.278Z,63.65
2022-08-28T23:22:17.647Z,49.70
2022-08-28T23:24:46.236Z,23.38
2022-08-28T23:27:35.298Z,46.97
2022-08-28T23:30:02.146Z,28.85
2022-08-28T23:32:29.833Z,121.97
2022-08-28T23:34:59.291Z,22.15
2022-08-28T23:37:26.930Z,32.55
2022-08-28T23:39:54.687Z,25.35
2022-08-28T23:42:22.408Z,25.65
2022-08-28T23:44:50.170Z,45.72
2022-08-28T23:47:17.822Z,43.97
2022-08-28T23:49:45.841Z,24.70
2022-08-28T23:52:14.803Z,31.67
2022-08-28T23:54:42.437Z,34.90
2022-08-28T23:57:11.142Z,58.90
2022-08-28T23:59:38.911Z,62.85
